Flight Track Log - Related Links

Times and Time Zones

All times are in EDT time to prevent confusion due to time zone crossing. See the ASQ5717 flight status page for this flight to view local times or setup timezone preferences in your user account.

Time Position Orientation Groundspeed Altitude Reporting Facility
EDT Latitude Longitude Course Direction KTS MPH feet Rate Location/Type
Wed 05:36:16 AM 44.4489 -73.1322 196° South 155 178 1,700  Level Boston Center
Wed 05:37:16 AM 44.3967 -73.1519 195° South 162 186 4,200 2,150 Climbing Boston Center
Wed 05:38:00 AM 44.1961 -73.2483 196° South  Level FlightAware Approximate
Wed 05:38:16 AM 44.3339 -73.1772 196° South 212 244 6,000  Level Boston Center
Wed 05:39:00 AM 44.1062 -73.2842 196° South  Level FlightAware Approximate
Wed 05:39:16 AM 44.2631 -73.2083 197° South 257 296 8,400  Level Boston Center
Wed 05:40:00 AM 44.0163 -73.3202 196° South  Level FlightAware Approximate
Wed 05:40:16 AM 44.1878 -73.2361 195° South 274 315 10,300  Level Boston Center
Wed 05:41:00 AM 43.9264 -73.3561 196° South  Level FlightAware Approximate
Wed 05:41:16 AM 44.1083 -73.2700 197° South 312 359 11,500  Level Boston Center
Wed 05:42:16 AM 44.0164 -73.3061 196° South 337 388 13,200 1,700 Climbing Boston Center
Wed 05:43:16 AM 43.9203 -73.3450 196° South 352 405 14,900 1,600 Climbing Boston Center
Wed 05:44:16 AM 43.8242 -73.3811 195° South 359 413 16,400 1,450 Climbing Boston Center
Wed 05:45:16 AM 43.7278 -73.4228 197° South 359 413 17,800 1,350 Climbing Boston Center
Wed 05:46:16 AM 43.6169 -73.4639 195° South 364 419 19,100 1,250 Climbing Boston Center
Wed 05:47:16 AM 43.5208 -73.5053 197° South 364 419 20,300 1,150 Climbing Boston Center
Wed 05:48:16 AM 43.4183 -73.5406 194° South 369 425 21,400 1,050 Climbing Boston Center
Wed 05:49:16 AM 43.3181 -73.5817 197° South 375 432 22,400 1,000 Climbing Boston Center
Wed 05:50:16 AM 43.2133 -73.6222 196° South 382 440 23,400 900 Climbing Boston Center
Wed 05:51:16 AM 43.1211 -73.6603 197° South 382 440 24,200 850 Climbing Boston Center
Wed 05:52:16 AM 43.0144 -73.7008 196° South 392 451 25,100 900 Climbing Boston Center
Wed 05:53:16 AM 42.9097 -73.7442 197° South 392 451 26,000 900 Climbing Boston Center
Wed 05:54:16 AM 42.7989 -73.7842 195° South 405 466 26,900 900 Climbing Boston Center
Wed 05:55:16 AM 42.6919 -73.8269 196° South 405 466 27,800 550 Climbing Boston Center
Wed 05:56:16 AM 42.5767 -73.8836 200° South 405 466 28,000 100 Climbing Boston Center
Wed 05:57:16 AM 42.4636 -73.9317 197° South 412 474 28,000  Level Boston Center
Wed 05:58:16 AM 42.3503 -73.9853 199° South 425 489 28,000  Level Boston Center
Wed 05:59:16 AM 42.2369 -74.0328 197° South 425 489 28,000  Level Boston Center
Wed 06:00:16 AM 42.1161 -74.0439 184° South 430 495 28,000  Level Boston Center
Wed 06:01:16 AM 41.9931 -74.0519 183° South 436 502 28,000  Level Boston Center
Wed 06:02:16 AM 41.8700 -74.0569 182° South 441 507 28,000  Level Boston Center
Wed 06:04:28 AM 41.6050 -74.0697 182° South 440 506 28,000  Level New York Center
Wed 06:05:27 AM 41.5028 -74.0758 183° South 432 497 28,000  Level New York Center
Wed 06:06:28 AM 41.3775 -74.0833 183° South 439 505 28,000  Level New York Center
Wed 06:07:29 AM 41.2544 -74.0883 182° South 444 511 28,000  Level New York Center
Wed 06:08:27 AM 41.1392 -74.1211 192° South 427 491 28,000  Level New York Center
Wed 06:09:27 AM 41.0689 -74.2444 233° Southwest 401 461 28,000  Level New York Center
Wed 06:10:28 AM 41.0067 -74.3731 237° Southwest 400 460 28,000  Level New York Center
Wed 06:11:28 AM 40.9442 -74.5044 238° Southwest 411 473 28,000  Level New York Center
Wed 06:12:26 AM 40.8900 -74.6358 241° Southwest 416 479 28,000  Level New York Center
Wed 06:13:27 AM 40.8481 -74.7706 248° West 416 479 28,000  Level New York Center
Wed 06:14:27 AM 40.8056 -74.9133 249° West 411 473 28,000 -541 Level New York Center
Wed 06:15:29 AM 40.7633 -75.0478 248° West 411 473 26,900 -1,140 Descending New York Center
Wed 06:16:28 AM 40.7206 -75.1875 248° West 411 473 25,700 -1,210 Descending New York Center
Wed 06:17:28 AM 40.6572 -75.3231 238° Southwest 417 480 24,500 -1,190 Descending New York Center
Wed 06:18:29 AM 40.5853 -75.4550 234° Southwest 436 502 23,300 -1,210 Descending New York Center
Wed 06:19:27 AM 40.5133 -75.5864 234° Southwest 453 521 22,100 -1,231 Descending New York Center
Wed 06:20:26 AM 40.4458 -75.7100 234° Southwest 442 509 20,900 -1,050 Descending New York Center
Wed 06:21:27 AM 40.3736 -75.8383 234° Southwest 436 502 20,000 -450 Descending New York Center
Wed 06:22:26 AM 40.2928 -75.9739 232° Southwest 431 496 20,000  Level New York Center
Wed 06:23:27 AM 40.2244 -76.0992 234° Southwest 437 503 20,000  Level New York Center
Wed 06:24:27 AM 40.1675 -76.2089 236° Southwest 431 496 20,000  Level New York Center
Wed 06:25:28 AM 40.0947 -76.3364 233° Southwest 438 504 20,000 -975 Level New York Center
Wed 06:27:44 AM 40.0167 -76.6667 253° West 399 459 16,800 -1,426 Descending Potomac TRACON
Wed 06:28:50 AM 39.9500 -76.7833 233° Southwest 377 434 15,200 -1,388 Descending Potomac TRACON
Wed 06:29:45 AM 39.8833 -76.8833 229° Southwest 356 410 14,000 -1,316 Descending Potomac TRACON
Wed 06:30:44 AM 39.8333 -76.9667 232° Southwest 319 367 12,700 -1,160 Descending Potomac TRACON
Wed 06:31:44 AM 39.7833 -77.0500 232° Southwest 277 319 11,700 -895 Descending Potomac TRACON
Wed 06:32:38 AM 39.7500 -77.1333 243° Southwest 272 313 11,000 -789 Descending Potomac TRACON
Wed 06:33:38 AM 39.7000 -77.2000 226° Southwest 278 320 10,200 -800 Descending Potomac TRACON
Wed 06:34:38 AM 39.6667 -77.2833 243° Southwest 277 319 9,400 -950 Descending Potomac TRACON
Wed 06:35:38 AM 39.6000 -77.3500 218° Southwest 274 315 8,300 -1,211 Descending Potomac TRACON
Wed 06:36:32 AM 39.5333 -77.3833 201° Southwest 271 312 7,100 -1,321 Descending Potomac TRACON
Wed 06:37:27 AM 39.4833 -77.4167 207° Southwest 265 305 5,900 -1,304 Descending Potomac TRACON
Wed 06:38:27 AM 39.4000 -77.4333 189° South 263 303 4,600 -950 Descending Potomac TRACON
Wed 06:39:27 AM 39.3333 -77.4333 180° South 252 290 4,000 -421 Descending Potomac TRACON
Wed 06:40:21 AM 39.2667 -77.4333 180° South 257 296 3,800 -526 Descending Potomac TRACON
Wed 06:41:21 AM 39.2000 -77.4333 180° South 239 275 3,000 -400 Descending Potomac TRACON
Wed 06:42:21 AM 39.1333 -77.4333 180° South 238 274 3,000 -53 Level Potomac TRACON
Wed 06:43:15 AM 39.0833 -77.4333 180° South 205 236 2,900 -111 Descending Potomac TRACON

Login

Don't have an account? Register now (free) for customized features, flight alerts, and more!